Aviation Digital Data Service (ADDS)

Output produced by METARs form (0832 UTC 18 December 2014)
found at http://aviationweather.gov/adds/metars/
 
KLAX 180544Z 1806/1912 VRB03KT P6SM SCT100 
     FM181300 VRB03KT P6SM VCSH SCT035 BKN070 
     FM181800 VRB03KT P6SM SCT035 SCT050 
     FM182100 27009KT P6SM SCT035 SCT050 
     FM190300 VRB03KT P6SM SCT025 SCT050 
     FM191000 VRB03KT 5SM BR SCT025 SCT050